createdAt,value
2023-03-15T00:00:24.847Z,58.00
2023-03-15T00:02:52.059Z,59.27
2023-03-15T00:05:18.999Z,58.76
2023-03-15T00:07:45.808Z,61.09
2023-03-15T00:10:12.824Z,62.25
2023-03-15T00:12:42.681Z,62.35
2023-03-15T00:15:11.918Z,62.48
2023-03-15T00:17:38.902Z,62.39
2023-03-15T00:20:06.684Z,63.21
2023-03-15T00:22:33.867Z,63.15
2023-03-15T00:25:00.782Z,62.59
2023-03-15T00:27:27.883Z,63.53
2023-03-15T00:29:54.752Z,63.65
2023-03-15T00:32:21.721Z,62.83
2023-03-15T00:34:49.266Z,63.56
2023-03-15T00:37:17.186Z,64.58
2023-03-15T00:39:45.860Z,64.66
2023-03-15T00:42:16.536Z,65.32
2023-03-15T00:44:47.073Z,66.02
2023-03-15T00:47:14.832Z,65.15
2023-03-15T00:49:41.810Z,65.23
2023-03-15T00:52:09.028Z,65.51
2023-03-15T00:54:36.007Z,64.30
2023-03-15T00:57:03.537Z,62.58
2023-03-15T00:59:34.988Z,61.81
2023-03-15T01:02:03.347Z,62.78
2023-03-15T01:04:31.489Z,64.76
2023-03-15T01:06:58.995Z,66.07
2023-03-15T01:09:26.118Z,66.80
2023-03-15T01:11:53.050Z,67.25
2023-03-15T01:14:20.000Z,67.47
2023-03-15T01:16:47.222Z,67.31
2023-03-15T01:19:14.159Z,66.81
2023-03-15T01:21:41.523Z,66.48
2023-03-15T01:24:13.289Z,65.79
2023-03-15T01:26:41.786Z,64.47
2023-03-15T01:29:12.020Z,64.45
2023-03-15T01:31:39.696Z,65.82
2023-03-15T01:34:06.842Z,65.93
2023-03-15T01:36:33.672Z,65.73
2023-03-15T01:39:00.624Z,67.01
2023-03-15T01:41:35.060Z,66.62
2023-03-15T01:44:02.120Z,66.44
2023-03-15T01:46:34.447Z,64.63
2023-03-15T01:49:33.447Z,66.08
2023-03-15T01:52:13.152Z,66.34
2023-03-15T01:55:16.653Z,66.71
2023-03-15T01:58:02.563Z,67.27
2023-03-15T02:00:30.958Z,67.24
2023-03-15T02:03:15.391Z,67.54
2023-03-15T02:05:54.696Z,67.37
2023-03-15T02:08:46.828Z,67.90
2023-03-15T02:11:17.609Z,67.83
2023-03-15T02:13:45.357Z,67.88
2023-03-15T02:16:12.672Z,67.63
2023-03-15T02:18:48.092Z,67.24
2023-03-15T02:21:24.746Z,67.33
2023-03-15T02:24:05.888Z,67.14
2023-03-15T02:26:44.156Z,66.59
2023-03-15T02:29:12.020Z,66.64
2023-03-15T02:31:39.546Z,66.79
2023-03-15T02:34:07.724Z,67.57
2023-03-15T02:36:36.130Z,67.83
2023-03-15T02:39:14.801Z,67.77
2023-03-15T02:41:45.281Z,67.07
2023-03-15T02:44:18.116Z,67.48
2023-03-15T02:46:48.024Z,68.11
2023-03-15T02:49:17.121Z,67.29
2023-03-15T02:51:44.037Z,67.27
2023-03-15T02:54:11.556Z,67.72
2023-03-15T02:56:38.417Z,67.89
2023-03-15T02:59:05.573Z,68.27
2023-03-15T03:01:34.141Z,68.89
2023-03-15T03:04:01.207Z,69.37
2023-03-15T03:06:28.098Z,69.42
2023-03-15T03:08:55.519Z,69.88
2023-03-15T03:11:22.788Z,68.97
2023-03-15T03:13:51.244Z,68.84
2023-03-15T03:16:19.397Z,68.17
2023-03-15T03:18:46.272Z,67.11
2023-03-15T03:21:14.826Z,67.46
2023-03-15T03:23:46.348Z,68.33
2023-03-15T03:26:16.780Z,69.43
2023-03-15T03:28:47.235Z,68.92
2023-03-15T03:31:26.522Z,68.79
2023-03-15T03:33:56.715Z,68.15
2023-03-15T03:36:25.012Z,67.94
2023-03-15T03:38:53.743Z,66.88
2023-03-15T03:41:21.997Z,67.50
2023-03-15T03:43:49.468Z,67.29
2023-03-15T03:46:17.120Z,67.15
2023-03-15T03:48:48.730Z,67.12
2023-03-15T03:51:15.803Z,66.93
2023-03-15T03:53:42.739Z,66.90
2023-03-15T03:56:10.559Z,66.59
2023-03-15T03:58:37.864Z,64.97
2023-03-15T04:01:16.101Z,65.54
2023-03-15T04:03:44.986Z,66.80
2023-03-15T04:06:15.780Z,64.27
2023-03-15T04:08:45.739Z,64.00
2023-03-15T04:11:18.202Z,64.39
2023-03-15T04:13:51.379Z,63.35
2023-03-15T04:16:18.641Z,59.99
2023-03-15T04:18:58.182Z,59.18
2023-03-15T04:21:25.404Z,59.47
2023-03-15T04:24:02.126Z,60.17
2023-03-15T04:26:48.974Z,61.11
2023-03-15T04:29:25.804Z,60.41
2023-03-15T04:32:17.636Z,59.70
2023-03-15T04:34:51.862Z,60.26
2023-03-15T04:37:51.854Z,60.14
2023-03-15T04:40:37.444Z,59.97
2023-03-15T04:43:16.527Z,59.38
2023-03-15T04:46:10.005Z,58.54
2023-03-15T04:48:51.325Z,59.72
2023-03-15T04:51:36.548Z,59.36
2023-03-15T04:54:19.941Z,59.48
2023-03-15T04:57:02.772Z,60.37
2023-03-15T04:59:49.038Z,60.04
2023-03-15T05:02:31.858Z,59.80
2023-03-15T05:05:06.805Z,61.59
2023-03-15T05:07:53.916Z,63.00
2023-03-15T05:10:35.598Z,62.47
2023-03-15T05:13:09.434Z,62.23
2023-03-15T05:15:59.554Z,61.99
2023-03-15T05:18:38.137Z,63.10
2023-03-15T05:21:23.887Z,61.38
2023-03-15T05:24:23.534Z,62.23
2023-03-15T05:27:08.631Z,63.04
2023-03-15T05:29:58.928Z,63.28
2023-03-15T05:33:04.738Z,61.62
2023-03-15T05:35:37.544Z,60.34
2023-03-15T05:38:17.862Z,60.87
2023-03-15T05:41:10.981Z,62.10
2023-03-15T05:44:01.443Z,61.85
2023-03-15T05:46:37.900Z,62.02
2023-03-15T05:49:22.288Z,61.21
2023-03-15T05:52:03.361Z,60.49
2023-03-15T05:54:45.321Z,60.21
2023-03-15T05:57:31.449Z,60.82
2023-03-15T06:00:32.551Z,59.81
2023-03-15T06:03:07.746Z,58.29
2023-03-15T06:05:44.097Z,57.81
2023-03-15T06:08:15.864Z,58.35
2023-03-15T06:10:46.310Z,55.75
2023-03-15T06:13:13.559Z,56.21
2023-03-15T06:15:41.158Z,56.80
2023-03-15T06:18:10.342Z,56.77
2023-03-15T06:20:38.642Z,56.66
2023-03-15T06:23:10.768Z,56.91
2023-03-15T06:25:45.385Z,55.53
2023-03-15T06:28:13.117Z,54.58
2023-03-15T06:30:45.238Z,54.73
2023-03-15T06:33:12.748Z,54.73
2023-03-15T06:35:39.969Z,54.56
2023-03-15T06:38:07.087Z,53.10
2023-03-15T06:40:34.058Z,51.01
2023-03-15T06:43:06.042Z,50.24
2023-03-15T06:45:34.068Z,51.70
2023-03-15T06:48:01.689Z,52.55
2023-03-15T06:50:37.215Z,51.04
2023-03-15T06:53:11.508Z,48.89
2023-03-15T06:55:38.479Z,50.39
2023-03-15T06:58:05.524Z,49.17
2023-03-15T07:00:32.463Z,48.30
2023-03-15T07:02:59.558Z,49.74
2023-03-15T07:05:26.717Z,48.48
2023-03-15T07:07:53.592Z,51.12
2023-03-15T07:10:21.609Z,51.88
2023-03-15T07:12:48.469Z,52.82
2023-03-15T07:15:17.355Z,49.90
2023-03-15T07:17:44.484Z,52.19
2023-03-15T07:20:12.337Z,50.66
2023-03-15T07:22:39.285Z,50.85
2023-03-15T07:25:07.625Z,50.49
2023-03-15T07:27:34.588Z,49.61
2023-03-15T07:30:03.780Z,51.09
2023-03-15T07:32:32.065Z,49.28
2023-03-15T07:35:01.499Z,48.04
2023-03-15T07:37:30.016Z,48.23
2023-03-15T07:39:58.652Z,48.99
2023-03-15T07:42:25.615Z,48.65
2023-03-15T07:44:56.103Z,46.60
2023-03-15T07:47:23.284Z,45.56
2023-03-15T07:49:50.214Z,46.82
2023-03-15T07:52:17.699Z,45.78
2023-03-15T07:54:44.533Z,46.73
2023-03-15T07:57:11.426Z,49.31
2023-03-15T07:59:38.829Z,47.33
2023-03-15T08:02:05.979Z,45.54
2023-03-15T08:04:35.649Z,46.40
2023-03-15T08:07:03.763Z,48.09
2023-03-15T08:09:33.060Z,48.10
2023-03-15T08:12:00.137Z,46.47
2023-03-15T08:14:27.469Z,47.69
2023-03-15T08:16:54.347Z,47.25
2023-03-15T08:19:22.276Z,45.90
2023-03-15T08:21:49.302Z,46.89
2023-03-15T08:24:16.329Z,45.43
2023-03-15T08:26:43.404Z,45.01
2023-03-15T08:29:10.539Z,45.08
2023-03-15T08:31:37.537Z,43.64
2023-03-15T08:34:04.552Z,43.28
2023-03-15T08:36:32.783Z,45.19
2023-03-15T08:38:59.762Z,44.04
2023-03-15T08:41:26.974Z,45.25
2023-03-15T08:43:54.187Z,44.26
2023-03-15T08:46:22.117Z,43.58
2023-03-15T08:48:49.313Z,42.46
2023-03-15T08:51:16.278Z,43.47
2023-03-15T08:53:43.339Z,43.89
2023-03-15T08:56:10.408Z,43.80
2023-03-15T08:58:37.573Z,43.35
2023-03-15T09:01:07.427Z,43.77
2023-03-15T09:03:34.467Z,45.07
2023-03-15T09:06:01.667Z,45.08
2023-03-15T09:08:28.989Z,46.20
2023-03-15T09:10:57.258Z,46.41
2023-03-15T09:13:25.293Z,43.93
2023-03-15T09:15:53.513Z,44.39
2023-03-15T09:18:21.018Z,44.76
2023-03-15T09:20:48.270Z,42.90
2023-03-15T09:23:15.251Z,43.86
2023-03-15T09:25:42.350Z,43.71
2023-03-15T09:28:11.578Z,43.56
2023-03-15T09:30:40.853Z,42.54
2023-03-15T09:33:08.420Z,43.67
2023-03-15T09:35:35.711Z,43.00
2023-03-15T09:38:04.030Z,44.44
2023-03-15T09:40:40.245Z,45.69
2023-03-15T09:43:07.282Z,44.27
2023-03-15T09:45:52.987Z,43.07
2023-03-15T09:48:26.027Z,43.35
2023-03-15T09:51:01.578Z,42.37
2023-03-15T09:53:30.313Z,43.59
2023-03-15T09:55:58.982Z,41.62
2023-03-15T09:58:35.860Z,41.26
2023-03-15T10:01:07.262Z,40.79
2023-03-15T10:03:49.631Z,43.04
2023-03-15T10:06:20.685Z,42.11
2023-03-15T10:08:47.845Z,41.63
2023-03-15T10:11:23.508Z,42.56
2023-03-15T10:14:08.934Z,40.31
2023-03-15T10:16:46.939Z,43.91
2023-03-15T10:19:49.177Z,43.29
2023-03-15T10:22:25.891Z,42.83
2023-03-15T10:25:26.532Z,39.64
2023-03-15T10:28:01.770Z,40.67
2023-03-15T10:30:34.858Z,41.10
2023-03-15T10:33:32.270Z,40.68
2023-03-15T10:36:10.744Z,39.43
2023-03-15T10:38:39.028Z,41.40
2023-03-15T10:41:07.272Z,40.73
2023-03-15T10:43:37.496Z,42.60
2023-03-15T10:46:21.502Z,42.44
2023-03-15T10:48:58.601Z,42.00
2023-03-15T10:51:32.090Z,41.90
2023-03-15T10:54:02.495Z,43.23
2023-03-15T10:56:35.321Z,43.66
2023-03-15T10:59:12.355Z,45.02
2023-03-15T11:01:40.734Z,44.91
2023-03-15T11:04:19.128Z,45.46
2023-03-15T11:06:48.533Z,43.18
2023-03-15T11:09:22.901Z,43.98
2023-03-15T11:12:02.390Z,45.27
2023-03-15T11:14:45.032Z,44.52
2023-03-15T11:17:19.639Z,44.41
2023-03-15T11:19:55.159Z,44.26
2023-03-15T11:22:22.502Z,43.08
2023-03-15T11:24:52.600Z,42.65
2023-03-15T11:27:21.747Z,43.31
2023-03-15T11:29:55.918Z,44.78
2023-03-15T11:32:30.096Z,43.88
2023-03-15T11:35:05.406Z,45.17
2023-03-15T11:38:13.076Z,43.34
2023-03-15T11:40:50.938Z,43.52
2023-03-15T11:43:59.937Z,45.89
2023-03-15T11:46:33.089Z,44.64
2023-03-15T11:49:10.969Z,45.42
2023-03-15T11:51:38.317Z,43.52
2023-03-15T11:54:14.406Z,45.24
2023-03-15T11:56:44.500Z,45.07
2023-03-15T11:59:30.809Z,46.27
2023-03-15T12:02:21.483Z,44.48
2023-03-15T12:04:51.037Z,46.32
2023-03-15T12:07:18.713Z,46.50
2023-03-15T12:09:57.146Z,45.12
2023-03-15T12:12:24.342Z,45.26
2023-03-15T12:15:14.626Z,46.32
2023-03-15T12:17:49.901Z,46.70
2023-03-15T12:20:19.630Z,47.02
2023-03-15T12:22:53.980Z,48.18
2023-03-15T12:25:31.134Z,49.52
2023-03-15T12:27:59.787Z,48.17
2023-03-15T12:30:38.566Z,49.56
2023-03-15T12:33:14.799Z,49.96
2023-03-15T12:35:42.170Z,49.83
2023-03-15T12:38:19.349Z,50.00
2023-03-15T12:40:54.541Z,49.60
2023-03-15T12:43:44.166Z,49.64
2023-03-15T12:46:43.803Z,51.37
2023-03-15T12:49:13.645Z,50.39
2023-03-15T12:52:03.217Z,52.19
2023-03-15T12:54:37.591Z,51.75
2023-03-15T12:57:05.857Z,52.29
2023-03-15T12:59:51.835Z,52.58
2023-03-15T13:02:41.772Z,52.65
2023-03-15T13:05:10.117Z,50.94
2023-03-15T13:07:51.117Z,51.07
2023-03-15T13:10:34.529Z,50.34
2023-03-15T13:13:25.946Z,51.19
2023-03-15T13:16:20.049Z,50.68
2023-03-15T13:18:53.373Z,49.37
2023-03-15T13:21:31.083Z,48.26
2023-03-15T13:23:59.798Z,48.04
2023-03-15T13:26:38.711Z,49.64
2023-03-15T13:29:17.928Z,48.38
2023-03-15T13:31:46.657Z,48.70
2023-03-15T13:34:17.155Z,48.12
2023-03-15T13:36:58.682Z,50.07
2023-03-15T13:39:28.170Z,48.90
2023-03-15T13:42:00.378Z,47.20
2023-03-15T13:44:29.016Z,45.86
2023-03-15T13:46:56.929Z,46.49
2023-03-15T13:49:24.858Z,47.27
2023-03-15T13:51:53.774Z,45.23
2023-03-15T13:54:31.161Z,46.84
2023-03-15T13:57:14.424Z,48.51
2023-03-15T13:59:44.581Z,46.54
2023-03-15T14:02:18.642Z,47.71
2023-03-15T14:04:53.489Z,47.80
2023-03-15T14:07:29.630Z,47.66
2023-03-15T14:10:18.824Z,47.48
2023-03-15T14:12:47.110Z,47.45
2023-03-15T14:15:30.116Z,48.75
2023-03-15T14:18:03.357Z,50.02
2023-03-15T14:20:54.412Z,49.67
2023-03-15T14:23:25.548Z,48.74
2023-03-15T14:25:55.151Z,49.16
2023-03-15T14:28:25.434Z,51.16
2023-03-15T14:30:56.195Z,51.98
2023-03-15T14:33:24.519Z,51.44
2023-03-15T14:35:54.952Z,51.62
2023-03-15T14:38:24.786Z,53.36
2023-03-15T14:40:53.744Z,52.48
2023-03-15T14:43:20.999Z,54.12
2023-03-15T14:45:49.614Z,53.40
2023-03-15T14:48:30.152Z,54.12
2023-03-15T14:51:02.215Z,54.86
2023-03-15T14:53:35.738Z,55.07
2023-03-15T14:56:05.604Z,55.36
2023-03-15T14:58:32.643Z,53.94
2023-03-15T15:00:59.711Z,54.91
2023-03-15T15:03:41.373Z,54.78
2023-03-15T15:06:12.605Z,55.95
2023-03-15T15:08:43.045Z,55.85
2023-03-15T15:11:13.269Z,56.11
2023-03-15T15:13:41.199Z,56.25
2023-03-15T15:16:08.629Z,57.36
2023-03-15T15:18:37.176Z,55.74
2023-03-15T15:21:27.493Z,57.36
2023-03-15T15:23:59.189Z,57.99
2023-03-15T15:26:29.186Z,58.12
2023-03-15T15:29:00.882Z,59.10
2023-03-15T15:31:29.296Z,59.59
2023-03-15T15:33:57.536Z,59.11
2023-03-15T15:36:32.600Z,59.12
2023-03-15T15:39:06.384Z,59.96
2023-03-15T15:41:34.936Z,60.86
2023-03-15T15:44:02.244Z,61.17
2023-03-15T15:46:29.436Z,60.69
2023-03-15T15:48:56.623Z,61.81
2023-03-15T15:51:27.887Z,62.00
2023-03-15T15:54:02.157Z,62.60
2023-03-15T15:56:37.015Z,62.52
2023-03-15T15:59:05.182Z,62.65
2023-03-15T16:01:32.781Z,62.92
2023-03-15T16:04:01.843Z,61.78
2023-03-15T16:06:29.054Z,63.33
2023-03-15T16:08:56.348Z,63.63
2023-03-15T16:11:23.417Z,63.41
2023-03-15T16:13:54.173Z,63.98
2023-03-15T16:16:21.720Z,64.48
2023-03-15T16:18:49.010Z,63.86
2023-03-15T16:21:27.672Z,65.56
2023-03-15T16:24:03.501Z,64.87
2023-03-15T16:26:31.098Z,64.92
2023-03-15T16:28:58.405Z,66.10
2023-03-15T16:31:25.417Z,67.12
2023-03-15T16:33:52.545Z,66.32
2023-03-15T16:36:22.286Z,66.10
2023-03-15T16:38:49.522Z,66.64
2023-03-15T16:41:17.370Z,68.76
2023-03-15T16:43:45.438Z,69.91
2023-03-15T16:46:17.728Z,68.89
2023-03-15T16:48:45.031Z,69.84
2023-03-15T16:51:14.488Z,69.75
2023-03-15T16:53:44.720Z,69.41
2023-03-15T16:56:15.453Z,70.70
2023-03-15T16:58:44.183Z,71.90
2023-03-15T17:01:11.648Z,72.67
2023-03-15T17:03:38.942Z,72.70
2023-03-15T17:06:06.566Z,72.56
2023-03-15T17:08:33.739Z,71.83
2023-03-15T17:11:00.965Z,73.47
2023-03-15T17:13:30.775Z,74.16
2023-03-15T17:15:57.827Z,73.52
2023-03-15T17:18:26.868Z,73.96
2023-03-15T17:20:53.859Z,74.07
2023-03-15T17:23:21.526Z,73.98
2023-03-15T17:25:49.157Z,73.97
2023-03-15T17:28:16.495Z,73.53
2023-03-15T17:30:43.532Z,74.00
2023-03-15T17:33:11.431Z,74.26
2023-03-15T17:35:45.492Z,74.32
2023-03-15T17:38:21.819Z,74.31
2023-03-15T17:40:48.984Z,74.39
2023-03-15T17:43:17.262Z,73.88
2023-03-15T17:45:44.416Z,73.79
2023-03-15T17:48:11.787Z,73.81
2023-03-15T17:50:41.978Z,74.01
2023-03-15T17:53:18.555Z,74.93
2023-03-15T17:55:47.886Z,73.67
2023-03-15T17:58:33.549Z,73.79
2023-03-15T18:01:00.558Z,74.16
2023-03-15T18:03:27.747Z,74.91
2023-03-15T18:05:55.156Z,74.30
2023-03-15T18:08:22.434Z,74.63
2023-03-15T18:10:51.991Z,75.25
2023-03-15T18:13:23.399Z,75.66
2023-03-15T18:15:51.202Z,75.63
2023-03-15T18:18:18.930Z,75.82
2023-03-15T18:20:47.259Z,76.49
2023-03-15T18:23:16.660Z,76.20
2023-03-15T18:25:44.080Z,76.11
2023-03-15T18:28:11.423Z,77.60
2023-03-15T18:30:38.934Z,77.98
2023-03-15T18:33:06.152Z,77.94
2023-03-15T18:35:35.685Z,78.34
2023-03-15T18:38:04.178Z,78.91
2023-03-15T18:40:32.964Z,79.39
2023-03-15T18:43:02.697Z,79.71
2023-03-15T18:45:32.413Z,79.60
2023-03-15T18:48:02.333Z,79.39
2023-03-15T18:50:30.133Z,79.70
2023-03-15T18:52:58.122Z,80.12
2023-03-15T18:55:25.628Z,79.78
2023-03-15T18:57:55.146Z,79.65
2023-03-15T19:00:28.404Z,80.68
2023-03-15T19:02:57.725Z,80.72
2023-03-15T19:05:25.812Z,81.12
2023-03-15T19:07:53.370Z,81.54
2023-03-15T19:10:22.844Z,81.47
2023-03-15T19:12:52.492Z,81.48
2023-03-15T19:15:19.893Z,82.14
2023-03-15T19:17:49.491Z,81.86
2023-03-15T19:20:18.556Z,82.06
2023-03-15T19:22:45.384Z,82.44
2023-03-15T19:25:13.922Z,82.66
2023-03-15T19:27:42.142Z,83.47
2023-03-15T19:30:17.036Z,83.49
2023-03-15T19:32:47.006Z,83.18
2023-03-15T19:35:14.354Z,83.71
2023-03-15T19:37:42.613Z,83.58
2023-03-15T19:40:12.116Z,83.29
2023-03-15T19:42:39.166Z,84.41
2023-03-15T19:45:09.592Z,84.24
2023-03-15T19:47:36.811Z,84.28
2023-03-15T19:50:04.711Z,84.05
2023-03-15T19:52:33.267Z,84.01
2023-03-15T19:55:01.109Z,85.04
2023-03-15T19:57:29.705Z,84.91
2023-03-15T19:59:56.556Z,84.92
2023-03-15T20:02:23.437Z,85.00
2023-03-15T20:04:50.573Z,84.78
2023-03-15T20:07:17.999Z,84.54
2023-03-15T20:09:45.005Z,84.50
2023-03-15T20:12:13.626Z,84.57
2023-03-15T20:14:41.023Z,85.14
2023-03-15T20:17:08.394Z,85.04
2023-03-15T20:19:36.661Z,85.14
2023-03-15T20:22:04.207Z,84.81
2023-03-15T20:24:31.535Z,85.39
2023-03-15T20:26:58.729Z,85.70
2023-03-15T20:29:25.977Z,85.44
2023-03-15T20:31:55.754Z,85.71
2023-03-15T20:34:22.948Z,85.96
2023-03-15T20:36:52.796Z,86.29
2023-03-15T20:39:20.296Z,86.60
2023-03-15T20:41:47.244Z,87.13
2023-03-15T20:44:14.154Z,87.59
2023-03-15T20:46:41.534Z,88.56
2023-03-15T20:49:08.407Z,89.62
2023-03-15T20:51:36.166Z,90.77
2023-03-15T20:54:05.118Z,91.72
2023-03-15T20:56:34.283Z,92.83
2023-03-15T20:59:01.629Z,93.48
2023-03-15T21:01:29.409Z,93.66
2023-03-15T21:03:57.660Z,94.30
2023-03-15T21:06:25.428Z,94.35
2023-03-15T21:08:52.784Z,95.71
2023-03-15T21:11:20.669Z,95.99
2023-03-15T21:13:47.936Z,95.83
2023-03-15T21:16:15.332Z,96.01
2023-03-15T21:18:47.692Z,96.36
2023-03-15T21:21:18.493Z,97.20
2023-03-15T21:23:45.886Z,97.24
2023-03-15T21:26:14.081Z,97.78
2023-03-15T21:28:42.367Z,98.12
2023-03-15T21:31:11.146Z,98.40
2023-03-15T21:33:41.914Z,99.00
2023-03-15T21:36:09.151Z,99.71
2023-03-15T21:38:36.458Z,100.00
2023-03-15T21:41:09.206Z,100.00
2023-03-15T21:43:39.508Z,99.90
2023-03-15T21:46:10.120Z,99.42
2023-03-15T21:48:37.383Z,98.46
2023-03-15T21:51:08.447Z,98.85
2023-03-15T21:53:36.593Z,99.67
2023-03-15T21:56:04.090Z,99.78
2023-03-15T21:58:31.976Z,100.00
2023-03-15T22:01:07.919Z,98.26
2023-03-15T22:03:36.739Z,98.24
2023-03-15T22:06:04.129Z,98.22
2023-03-15T22:08:32.197Z,97.63
2023-03-15T22:10:59.199Z,97.60
2023-03-15T22:13:27.305Z,97.45
2023-03-15T22:15:54.210Z,97.38
2023-03-15T22:18:22.804Z,97.51
2023-03-15T22:20:51.536Z,97.21
2023-03-15T22:23:18.844Z,96.15
2023-03-15T22:25:45.886Z,95.99
2023-03-15T22:28:13.514Z,96.29
2023-03-15T22:30:41.005Z,95.97
2023-03-15T22:33:08.470Z,95.64
2023-03-15T22:35:35.714Z,95.29
2023-03-15T22:38:09.944Z,95.77
2023-03-15T22:40:40.012Z,96.04
2023-03-15T22:43:08.627Z,95.64
2023-03-15T22:45:35.859Z,95.65
2023-03-15T22:48:02.962Z,95.97
2023-03-15T22:50:29.897Z,95.84
2023-03-15T22:52:57.329Z,95.54
2023-03-15T22:55:26.129Z,95.42
2023-03-15T22:57:53.995Z,94.90
2023-03-15T23:00:22.634Z,95.32
2023-03-15T23:02:50.036Z,94.64
2023-03-15T23:05:19.504Z,94.08
2023-03-15T23:11:18.773Z,94.47
2023-03-15T23:13:48.889Z,94.87
2023-03-15T23:16:16.933Z,94.97
2023-03-15T23:18:44.274Z,94.81
2023-03-15T23:21:14.002Z,94.93
2023-03-15T23:23:43.026Z,95.02
2023-03-15T23:26:12.927Z,94.90
2023-03-15T23:28:40.030Z,94.96
2023-03-15T23:31:07.563Z,95.06
2023-03-15T23:33:35.056Z,94.55
2023-03-15T23:36:04.621Z,94.40
2023-03-15T23:38:34.597Z,94.34
2023-03-15T23:41:02.687Z,94.32
2023-03-15T23:43:29.635Z,94.24
2023-03-15T23:45:58.741Z,94.39
2023-03-15T23:48:26.432Z,94.36
2023-03-15T23:50:57.901Z,94.70
2023-03-15T23:53:25.713Z,94.28
2023-03-15T23:55:53.404Z,94.37
2023-03-15T23:58:21.366Z,95.14
